sensor_id;sensor_type;location;lat;lon;timestamp;P1;durP1;ratioP1;P2;durP2;ratioP2
5303;SDS011;2674;49.722;10.892;2022-09-13T00:01:17;10.00;;;8.80;;
5303;SDS011;2674;49.722;10.892;2022-09-13T00:03:43;9.73;;;8.13;;
5303;SDS011;2674;49.722;10.892;2022-09-13T00:06:10;11.20;;;9.30;;
5303;SDS011;2674;49.722;10.892;2022-09-13T00:08:38;10.00;;;8.00;;
5303;SDS011;2674;49.722;10.892;2022-09-13T00:11:04;8.30;;;7.50;;
5303;SDS011;2674;49.722;10.892;2022-09-13T00:13:30;10.00;;;8.27;;
5303;SDS011;2674;49.722;10.892;2022-09-13T00:15:56;12.63;;;7.77;;
5303;SDS011;2674;49.722;10.892;2022-09-13T00:18:22;10.43;;;8.50;;
5303;SDS011;2674;49.722;10.892;2022-09-13T00:20:49;15.03;;;8.00;;
5303;SDS011;2674;49.722;10.892;2022-09-13T00:23:14;11.50;;;9.03;;
5303;SDS011;2674;49.722;10.892;2022-09-13T00:25:40;13.07;;;9.30;;
5303;SDS011;2674;49.722;10.892;2022-09-13T00:28:06;9.77;;;8.77;;
5303;SDS011;2674;49.722;10.892;2022-09-13T00:30:32;9.07;;;8.17;;
5303;SDS011;2674;49.722;10.892;2022-09-13T00:32:58;9.13;;;8.20;;
5303;SDS011;2674;49.722;10.892;2022-09-13T00:35:28;11.43;;;8.30;;
5303;SDS011;2674;49.722;10.892;2022-09-13T00:37:55;13.53;;;8.77;;
5303;SDS011;2674;49.722;10.892;2022-09-13T00:40:22;11.73;;;8.20;;
5303;SDS011;2674;49.722;10.892;2022-09-13T00:42:48;10.27;;;9.00;;
5303;SDS011;2674;49.722;10.892;2022-09-13T00:45:16;10.67;;;8.53;;
5303;SDS011;2674;49.722;10.892;2022-09-13T00:50:44;15.73;;;9.90;;
5303;SDS011;2674;49.722;10.892;2022-09-13T00:53:19;10.63;;;9.43;;
5303;SDS011;2674;49.722;10.892;2022-09-13T00:55:57;9.50;;;8.50;;
5303;SDS011;2674;49.722;10.892;2022-09-13T00:58:35;13.43;;;8.73;;
5303;SDS011;2674;49.722;10.892;2022-09-13T01:01:17;8.13;;;7.30;;
5303;SDS011;2674;49.722;10.892;2022-09-13T01:03:47;10.67;;;8.27;;
5303;SDS011;2674;49.722;10.892;2022-09-13T01:06:15;10.63;;;9.50;;
5303;SDS011;2674;49.722;10.892;2022-09-13T01:08:47;8.93;;;8.03;;
5303;SDS011;2674;49.722;10.892;2022-09-13T01:11:25;11.80;;;8.80;;
5303;SDS011;2674;49.722;10.892;2022-09-13T01:13:59;11.20;;;9.20;;
5303;SDS011;2674;49.722;10.892;2022-09-13T01:16:25;10.80;;;9.73;;
5303;SDS011;2674;49.722;10.892;2022-09-13T01:18:52;12.40;;;9.40;;
5303;SDS011;2674;49.722;10.892;2022-09-13T01:41:14;11.57;;;9.20;;
5303;SDS011;2674;49.722;10.892;2022-09-13T01:52:35;9.57;;;8.57;;
5303;SDS011;2674;49.722;10.892;2022-09-13T01:55:07;11.70;;;7.67;;
5303;SDS011;2674;49.722;10.892;2022-09-13T01:57:56;10.20;;;9.10;;
5303;SDS011;2674;49.722;10.892;2022-09-13T02:00:40;12.77;;;6.93;;
5303;SDS011;2674;49.722;10.892;2022-09-13T02:03:13;13.87;;;8.50;;
5303;SDS011;2674;49.722;10.892;2022-09-13T02:05:53;10.27;;;7.77;;
5303;SDS011;2674;49.722;10.892;2022-09-13T02:08:23;9.20;;;8.17;;
5303;SDS011;2674;49.722;10.892;2022-09-13T02:11:10;10.90;;;7.80;;
5303;SDS011;2674;49.722;10.892;2022-09-13T02:13:45;11.17;;;8.20;;
5303;SDS011;2674;49.722;10.892;2022-09-13T02:16:43;10.27;;;8.17;;
5303;SDS011;2674;49.722;10.892;2022-09-13T02:19:13;10.40;;;8.20;;
5303;SDS011;2674;49.722;10.892;2022-09-13T02:21:43;9.43;;;8.37;;
5303;SDS011;2674;49.722;10.892;2022-09-13T02:24:33;11.03;;;7.77;;
5303;SDS011;2674;49.722;10.892;2022-09-13T02:27:07;9.53;;;8.10;;
5303;SDS011;2674;49.722;10.892;2022-09-13T02:29:38;10.43;;;9.27;;
5303;SDS011;2674;49.722;10.892;2022-09-13T02:32:08;11.63;;;8.43;;
5303;SDS011;2674;49.722;10.892;2022-09-13T02:34:46;8.30;;;7.50;;
5303;SDS011;2674;49.722;10.892;2022-09-13T02:37:18;13.70;;;9.53;;
5303;SDS011;2674;49.722;10.892;2022-09-13T02:40:19;9.17;;;8.27;;
5303;SDS011;2674;49.722;10.892;2022-09-13T02:42:47;9.87;;;8.17;;
5303;SDS011;2674;49.722;10.892;2022-09-13T02:45:20;9.77;;;8.50;;
5303;SDS011;2674;49.722;10.892;2022-09-13T02:47:57;10.13;;;8.10;;
5303;SDS011;2674;49.722;10.892;2022-09-13T02:50:32;9.23;;;7.97;;
5303;SDS011;2674;49.722;10.892;2022-09-13T02:53:13;10.50;;;8.10;;
5303;SDS011;2674;49.722;10.892;2022-09-13T02:58:27;16.33;;;8.97;;
5303;SDS011;2674;49.722;10.892;2022-09-13T03:01:08;10.80;;;7.90;;
5303;SDS011;2674;49.722;10.892;2022-09-13T03:03:35;14.60;;;8.70;;
5303;SDS011;2674;49.722;10.892;2022-09-13T03:06:01;11.20;;;8.10;;
5303;SDS011;2674;49.722;10.892;2022-09-13T03:08:27;13.10;;;9.07;;
5303;SDS011;2674;49.722;10.892;2022-09-13T03:11:04;11.73;;;9.03;;
5303;SDS011;2674;49.722;10.892;2022-09-13T03:14:00;10.80;;;7.90;;
5303;SDS011;2674;49.722;10.892;2022-09-13T03:27:36;12.07;;;9.60;;
5303;SDS011;2674;49.722;10.892;2022-09-13T03:30:15;9.57;;;8.40;;
5303;SDS011;2674;49.722;10.892;2022-09-13T03:33:02;9.50;;;8.50;;
5303;SDS011;2674;49.722;10.892;2022-09-13T03:41:26;12.20;;;8.90;;
5303;SDS011;2674;49.722;10.892;2022-09-13T03:44:07;9.70;;;7.57;;
5303;SDS011;2674;49.722;10.892;2022-09-13T03:46:42;18.20;;;9.70;;
5303;SDS011;2674;49.722;10.892;2022-09-13T03:49:15;9.60;;;8.57;;
5303;SDS011;2674;49.722;10.892;2022-09-13T03:51:43;16.93;;;9.17;;
5303;SDS011;2674;49.722;10.892;2022-09-13T03:59:38;10.90;;;8.80;;
5303;SDS011;2674;49.722;10.892;2022-09-13T04:02:15;9.80;;;8.80;;
5303;SDS011;2674;49.722;10.892;2022-09-13T04:04:42;12.80;;;9.03;;
5303;SDS011;2674;49.722;10.892;2022-09-13T04:07:09;10.27;;;8.60;;
5303;SDS011;2674;49.722;10.892;2022-09-13T04:09:37;13.77;;;9.37;;
5303;SDS011;2674;49.722;10.892;2022-09-13T04:12:03;11.50;;;9.83;;
5303;SDS011;2674;49.722;10.892;2022-09-13T04:14:29;13.77;;;9.90;;
5303;SDS011;2674;49.722;10.892;2022-09-13T04:16:56;10.57;;;9.47;;
5303;SDS011;2674;49.722;10.892;2022-09-13T04:19:23;10.27;;;8.50;;
5303;SDS011;2674;49.722;10.892;2022-09-13T04:21:50;11.23;;;9.23;;
5303;SDS011;2674;49.722;10.892;2022-09-13T04:24:17;10.47;;;8.90;;
5303;SDS011;2674;49.722;10.892;2022-09-13T04:26:47;10.97;;;8.87;;
5303;SDS011;2674;49.722;10.892;2022-09-13T04:29:18;12.10;;;8.30;;
5303;SDS011;2674;49.722;10.892;2022-09-13T04:31:45;9.80;;;8.40;;
5303;SDS011;2674;49.722;10.892;2022-09-13T04:34:12;14.40;;;8.97;;
5303;SDS011;2674;49.722;10.892;2022-09-13T04:36:38;11.53;;;8.57;;
5303;SDS011;2674;49.722;10.892;2022-09-13T04:39:04;12.90;;;9.60;;
5303;SDS011;2674;49.722;10.892;2022-09-13T04:41:30;11.03;;;8.63;;
5303;SDS011;2674;49.722;10.892;2022-09-13T04:43:59;11.17;;;9.40;;
5303;SDS011;2674;49.722;10.892;2022-09-13T04:46:26;15.57;;;8.90;;
5303;SDS011;2674;49.722;10.892;2022-09-13T04:48:52;11.93;;;10.03;;
5303;SDS011;2674;49.722;10.892;2022-09-13T04:51:18;12.20;;;10.33;;
5303;SDS011;2674;49.722;10.892;2022-09-13T04:53:46;12.50;;;10.07;;
5303;SDS011;2674;49.722;10.892;2022-09-13T04:56:17;12.30;;;9.67;;
5303;SDS011;2674;49.722;10.892;2022-09-13T04:58:44;14.60;;;10.33;;
5303;SDS011;2674;49.722;10.892;2022-09-13T05:01:10;11.20;;;9.03;;
5303;SDS011;2674;49.722;10.892;2022-09-13T05:03:36;12.10;;;9.20;;
5303;SDS011;2674;49.722;10.892;2022-09-13T05:06:03;15.63;;;10.00;;
5303;SDS011;2674;49.722;10.892;2022-09-13T05:08:31;13.20;;;9.03;;
5303;SDS011;2674;49.722;10.892;2022-09-13T05:10:57;14.80;;;11.87;;
5303;SDS011;2674;49.722;10.892;2022-09-13T05:13:24;13.23;;;11.17;;
5303;SDS011;2674;49.722;10.892;2022-09-13T05:15:54;16.20;;;10.90;;
5303;SDS011;2674;49.722;10.892;2022-09-13T05:18:25;16.53;;;10.80;;
5303;SDS011;2674;49.722;10.892;2022-09-13T05:20:55;13.80;;;10.37;;
5303;SDS011;2674;49.722;10.892;2022-09-13T05:23:22;14.67;;;9.77;;
5303;SDS011;2674;49.722;10.892;2022-09-13T05:25:59;12.07;;;10.27;;
5303;SDS011;2674;49.722;10.892;2022-09-13T05:28:27;11.50;;;9.70;;
5303;SDS011;2674;49.722;10.892;2022-09-13T05:30:58;17.70;;;10.27;;
5303;SDS011;2674;49.722;10.892;2022-09-13T05:33:26;12.80;;;10.90;;
5303;SDS011;2674;49.722;10.892;2022-09-13T05:35:53;13.57;;;8.93;;
5303;SDS011;2674;49.722;10.892;2022-09-13T05:38:19;12.03;;;9.20;;
5303;SDS011;2674;49.722;10.892;2022-09-13T05:40:45;13.00;;;10.57;;
5303;SDS011;2674;49.722;10.892;2022-09-13T05:43:12;17.43;;;10.43;;
5303;SDS011;2674;49.722;10.892;2022-09-13T05:45:39;13.77;;;10.57;;
5303;SDS011;2674;49.722;10.892;2022-09-13T05:48:05;14.60;;;10.47;;
5303;SDS011;2674;49.722;10.892;2022-09-13T05:50:31;10.60;;;8.97;;
5303;SDS011;2674;49.722;10.892;2022-09-13T05:53:02;12.50;;;9.87;;
5303;SDS011;2674;49.722;10.892;2022-09-13T05:55:28;11.30;;;8.80;;
5303;SDS011;2674;49.722;10.892;2022-09-13T05:57:55;11.73;;;10.50;;
5303;SDS011;2674;49.722;10.892;2022-09-13T06:00:21;8.83;;;8.03;;
5303;SDS011;2674;49.722;10.892;2022-09-13T06:02:46;9.40;;;8.40;;
5303;SDS011;2674;49.722;10.892;2022-09-13T06:05:13;11.53;;;8.40;;
5303;SDS011;2674;49.722;10.892;2022-09-13T06:07:39;10.90;;;8.80;;
5303;SDS011;2674;49.722;10.892;2022-09-13T06:10:06;9.30;;;7.60;;
5303;SDS011;2674;49.722;10.892;2022-09-13T06:12:33;10.27;;;9.23;;
5303;SDS011;2674;49.722;10.892;2022-09-13T06:15:02;9.93;;;8.13;;
5303;SDS011;2674;49.722;10.892;2022-09-13T06:17:28;9.40;;;8.47;;
5303;SDS011;2674;49.722;10.892;2022-09-13T06:19:54;9.63;;;8.03;;
5303;SDS011;2674;49.722;10.892;2022-09-13T06:22:21;12.93;;;8.73;;
5303;SDS011;2674;49.722;10.892;2022-09-13T06:24:47;11.23;;;9.47;;
5303;SDS011;2674;49.722;10.892;2022-09-13T06:27:13;9.37;;;8.03;;
5303;SDS011;2674;49.722;10.892;2022-09-13T06:29:39;10.13;;;9.00;;
5303;SDS011;2674;49.722;10.892;2022-09-13T06:32:04;11.30;;;8.23;;
5303;SDS011;2674;49.722;10.892;2022-09-13T06:34:31;10.00;;;8.47;;
5303;SDS011;2674;49.722;10.892;2022-09-13T06:36:56;9.47;;;8.57;;
5303;SDS011;2674;49.722;10.892;2022-09-13T06:39:22;13.07;;;9.37;;
5303;SDS011;2674;49.722;10.892;2022-09-13T06:41:48;11.67;;;9.40;;
5303;SDS011;2674;49.722;10.892;2022-09-13T06:44:14;14.17;;;9.47;;
5303;SDS011;2674;49.722;10.892;2022-09-13T06:46:40;18.97;;;8.50;;
5303;SDS011;2674;49.722;10.892;2022-09-13T06:49:06;13.63;;;10.50;;
5303;SDS011;2674;49.722;10.892;2022-09-13T06:51:34;14.20;;;8.30;;
5303;SDS011;2674;49.722;10.892;2022-09-13T06:54:00;10.13;;;8.93;;
5303;SDS011;2674;49.722;10.892;2022-09-13T06:56:28;9.80;;;8.37;;
5303;SDS011;2674;49.722;10.892;2022-09-13T06:59:00;9.60;;;8.60;;
5303;SDS011;2674;49.722;10.892;2022-09-13T07:01:29;11.00;;;8.50;;
5303;SDS011;2674;49.722;10.892;2022-09-13T07:04:07;8.60;;;7.50;;
5303;SDS011;2674;49.722;10.892;2022-09-13T07:06:35;9.33;;;8.23;;
5303;SDS011;2674;49.722;10.892;2022-09-13T07:09:04;10.03;;;8.07;;
5303;SDS011;2674;49.722;10.892;2022-09-13T07:11:32;16.30;;;9.13;;
5303;SDS011;2674;49.722;10.892;2022-09-13T07:13:59;13.00;;;8.50;;
5303;SDS011;2674;49.722;10.892;2022-09-13T07:16:26;9.70;;;8.20;;
5303;SDS011;2674;49.722;10.892;2022-09-13T07:18:55;11.80;;;7.90;;
5303;SDS011;2674;49.722;10.892;2022-09-13T07:21:26;8.67;;;7.67;;
5303;SDS011;2674;49.722;10.892;2022-09-13T07:23:53;14.10;;;9.17;;
5303;SDS011;2674;49.722;10.892;2022-09-13T07:26:20;11.27;;;8.60;;
5303;SDS011;2674;49.722;10.892;2022-09-13T07:28:47;9.10;;;8.10;;
5303;SDS011;2674;49.722;10.892;2022-09-13T07:33:55;11.13;;;7.70;;
5303;SDS011;2674;49.722;10.892;2022-09-13T07:36:25;8.80;;;7.83;;
5303;SDS011;2674;49.722;10.892;2022-09-13T07:38:52;9.83;;;6.73;;
5303;SDS011;2674;49.722;10.892;2022-09-13T07:41:19;8.93;;;8.03;;
5303;SDS011;2674;49.722;10.892;2022-09-13T07:43:47;7.70;;;6.77;;
5303;SDS011;2674;49.722;10.892;2022-09-13T07:46:14;7.47;;;6.70;;
5303;SDS011;2674;49.722;10.892;2022-09-13T07:48:44;9.17;;;6.73;;
5303;SDS011;2674;49.722;10.892;2022-09-13T07:53:39;9.57;;;6.87;;
5303;SDS011;2674;49.722;10.892;2022-09-13T07:58:37;7.30;;;6.60;;
5303;SDS011;2674;49.722;10.892;2022-09-13T08:01:14;8.03;;;7.10;;
5303;SDS011;2674;49.722;10.892;2022-09-13T08:03:44;13.53;;;6.53;;
5303;SDS011;2674;49.722;10.892;2022-09-13T08:06:16;9.97;;;7.37;;
5303;SDS011;2674;49.722;10.892;2022-09-13T08:08:42;8.27;;;7.43;;
5303;SDS011;2674;49.722;10.892;2022-09-13T08:11:09;10.30;;;8.10;;
5303;SDS011;2674;49.722;10.892;2022-09-13T08:13:44;9.67;;;8.10;;
5303;SDS011;2674;49.722;10.892;2022-09-13T08:16:10;7.10;;;6.40;;
5303;SDS011;2674;49.722;10.892;2022-09-13T08:18:41;13.37;;;6.60;;
5303;SDS011;2674;49.722;10.892;2022-09-13T08:21:08;9.03;;;6.80;;
5303;SDS011;2674;49.722;10.892;2022-09-13T08:23:35;8.97;;;6.80;;
5303;SDS011;2674;49.722;10.892;2022-09-13T08:26:01;7.90;;;6.90;;
5303;SDS011;2674;49.722;10.892;2022-09-13T08:28:28;11.87;;;7.20;;
5303;SDS011;2674;49.722;10.892;2022-09-13T08:30:55;9.10;;;6.50;;
5303;SDS011;2674;49.722;10.892;2022-09-13T08:33:26;8.13;;;6.20;;
5303;SDS011;2674;49.722;10.892;2022-09-13T08:35:52;9.23;;;6.20;;
5303;SDS011;2674;49.722;10.892;2022-09-13T08:38:19;8.13;;;6.23;;
5303;SDS011;2674;49.722;10.892;2022-09-13T08:49:07;9.57;;;6.20;;
5303;SDS011;2674;49.722;10.892;2022-09-13T08:51:57;7.87;;;6.30;;
5303;SDS011;2674;49.722;10.892;2022-09-13T08:54:29;9.00;;;6.23;;
5303;SDS011;2674;49.722;10.892;2022-09-13T08:57:00;7.00;;;6.00;;
5303;SDS011;2674;49.722;10.892;2022-09-13T09:08:02;7.80;;;6.40;;
5303;SDS011;2674;49.722;10.892;2022-09-13T09:10:45;10.83;;;6.97;;
5303;SDS011;2674;49.722;10.892;2022-09-13T09:15:52;8.93;;;6.40;;
5303;SDS011;2674;49.722;10.892;2022-09-13T09:18:22;8.27;;;6.47;;
5303;SDS011;2674;49.722;10.892;2022-09-13T09:20:52;6.37;;;5.70;;
5303;SDS011;2674;49.722;10.892;2022-09-13T09:23:24;6.60;;;6.00;;
5303;SDS011;2674;49.722;10.892;2022-09-13T09:29:15;6.40;;;5.80;;
5303;SDS011;2674;49.722;10.892;2022-09-13T09:37:40;7.70;;;5.90;;
5303;SDS011;2674;49.722;10.892;2022-09-13T09:40:16;6.93;;;6.10;;
5303;SDS011;2674;49.722;10.892;2022-09-13T09:42:43;8.80;;;6.27;;
5303;SDS011;2674;49.722;10.892;2022-09-13T09:45:18;7.10;;;5.50;;
5303;SDS011;2674;49.722;10.892;2022-09-13T09:47:50;9.03;;;5.70;;
5303;SDS011;2674;49.722;10.892;2022-09-13T09:50:23;7.03;;;5.57;;
5303;SDS011;2674;49.722;10.892;2022-09-13T09:58:47;10.03;;;5.70;;
5303;SDS011;2674;49.722;10.892;2022-09-13T10:01:21;6.60;;;6.00;;
5303;SDS011;2674;49.722;10.892;2022-09-13T10:06:24;5.13;;;4.63;;
5303;SDS011;2674;49.722;10.892;2022-09-13T10:08:57;7.80;;;5.07;;
5303;SDS011;2674;49.722;10.892;2022-09-13T10:11:45;5.30;;;4.80;;
5303;SDS011;2674;49.722;10.892;2022-09-13T10:17:00;5.53;;;5.00;;
5303;SDS011;2674;49.722;10.892;2022-09-13T10:19:54;6.23;;;4.70;;
5303;SDS011;2674;49.722;10.892;2022-09-13T10:22:23;5.63;;;5.13;;
5303;SDS011;2674;49.722;10.892;2022-09-13T10:24:50;4.53;;;4.13;;
5303;SDS011;2674;49.722;10.892;2022-09-13T10:30:01;7.27;;;3.90;;
5303;SDS011;2674;49.722;10.892;2022-09-13T10:32:30;4.93;;;4.30;;
5303;SDS011;2674;49.722;10.892;2022-09-13T10:35:14;5.93;;;4.47;;
5303;SDS011;2674;49.722;10.892;2022-09-13T10:37:43;8.97;;;4.90;;
5303;SDS011;2674;49.722;10.892;2022-09-13T10:40:31;5.43;;;4.30;;
5303;SDS011;2674;49.722;10.892;2022-09-13T10:42:59;7.20;;;3.87;;
5303;SDS011;2674;49.722;10.892;2022-09-13T10:45:29;4.40;;;4.00;;
5303;SDS011;2674;49.722;10.892;2022-09-13T10:48:09;4.40;;;4.00;;
5303;SDS011;2674;49.722;10.892;2022-09-13T10:50:39;5.03;;;4.53;;
5303;SDS011;2674;49.722;10.892;2022-09-13T10:55:59;4.47;;;4.07;;
5303;SDS011;2674;49.722;10.892;2022-09-13T10:58:26;5.63;;;5.10;;
5303;SDS011;2674;49.722;10.892;2022-09-13T11:37:43;6.27;;;4.30;;
5303;SDS011;2674;49.722;10.892;2022-09-13T11:46:11;8.87;;;3.93;;
5303;SDS011;2674;49.722;10.892;2022-09-13T11:51:29;12.40;;;4.20;;
5303;SDS011;2674;49.722;10.892;2022-09-13T11:54:11;4.70;;;4.30;;
5303;SDS011;2674;49.722;10.892;2022-09-13T11:56:49;8.03;;;4.93;;
5303;SDS011;2674;49.722;10.892;2022-09-13T11:59:28;5.20;;;4.67;;
5303;SDS011;2674;49.722;10.892;2022-09-13T12:04:51;5.47;;;4.97;;
5303;SDS011;2674;49.722;10.892;2022-09-13T12:10:20;10.17;;;5.50;;
5303;SDS011;2674;49.722;10.892;2022-09-13T12:12:49;6.60;;;6.00;;
5303;SDS011;2674;49.722;10.892;2022-09-13T12:15:21;5.47;;;4.97;;
5303;SDS011;2674;49.722;10.892;2022-09-13T12:17:59;6.53;;;4.77;;
5303;SDS011;2674;49.722;10.892;2022-09-13T12:20:40;6.40;;;4.67;;
5303;SDS011;2674;49.722;10.892;2022-09-13T12:23:13;7.53;;;4.60;;
5303;SDS011;2674;49.722;10.892;2022-09-13T12:26:14;6.30;;;4.97;;
5303;SDS011;2674;49.722;10.892;2022-09-13T12:28:52;9.03;;;5.50;;
5303;SDS011;2674;49.722;10.892;2022-09-13T12:31:23;5.33;;;4.80;;
5303;SDS011;2674;49.722;10.892;2022-09-13T12:33:53;5.93;;;5.27;;
5303;SDS011;2674;49.722;10.892;2022-09-13T12:45:12;5.10;;;4.70;;
5303;SDS011;2674;49.722;10.892;2022-09-13T12:50:43;5.77;;;3.47;;
5303;SDS011;2674;49.722;10.892;2022-09-13T13:02:18;3.60;;;3.30;;
5303;SDS011;2674;49.722;10.892;2022-09-13T13:04:57;5.97;;;3.60;;
5303;SDS011;2674;49.722;10.892;2022-09-13T13:07:27;4.77;;;3.80;;
5303;SDS011;2674;49.722;10.892;2022-09-13T13:09:57;5.73;;;3.93;;
5303;SDS011;2674;49.722;10.892;2022-09-13T13:12:34;6.33;;;4.77;;
5303;SDS011;2674;49.722;10.892;2022-09-13T13:15:07;6.90;;;4.90;;
5303;SDS011;2674;49.722;10.892;2022-09-13T13:17:52;8.77;;;3.90;;
5303;SDS011;2674;49.722;10.892;2022-09-13T13:23:26;4.80;;;4.40;;
5303;SDS011;2674;49.722;10.892;2022-09-13T13:26:07;5.27;;;3.73;;
5303;SDS011;2674;49.722;10.892;2022-09-13T13:34:00;6.33;;;4.13;;
5303;SDS011;2674;49.722;10.892;2022-09-13T13:36:31;5.00;;;3.40;;
5303;SDS011;2674;49.722;10.892;2022-09-13T13:38:58;5.20;;;4.80;;
5303;SDS011;2674;49.722;10.892;2022-09-13T13:46:43;7.20;;;4.90;;
5303;SDS011;2674;49.722;10.892;2022-09-13T14:20:14;4.63;;;3.17;;
5303;SDS011;2674;49.722;10.892;2022-09-13T14:22:42;6.10;;;3.20;;
5303;SDS011;2674;49.722;10.892;2022-09-13T14:27:44;7.27;;;3.70;;
5303;SDS011;2674;49.722;10.892;2022-09-13T14:32:56;4.27;;;3.27;;
5303;SDS011;2674;49.722;10.892;2022-09-13T14:35:24;5.03;;;3.70;;
5303;SDS011;2674;49.722;10.892;2022-09-13T14:38:12;6.43;;;3.57;;
5303;SDS011;2674;49.722;10.892;2022-09-13T14:40:48;4.60;;;3.33;;
5303;SDS011;2674;49.722;10.892;2022-09-13T14:43:22;6.43;;;3.53;;
5303;SDS011;2674;49.722;10.892;2022-09-13T14:45:51;3.90;;;3.10;;
5303;SDS011;2674;49.722;10.892;2022-09-13T14:48:37;6.23;;;3.33;;
5303;SDS011;2674;49.722;10.892;2022-09-13T14:51:17;4.47;;;2.97;;
5303;SDS011;2674;49.722;10.892;2022-09-13T14:53:50;7.00;;;3.40;;
5303;SDS011;2674;49.722;10.892;2022-09-13T14:56:27;4.07;;;3.30;;
5303;SDS011;2674;49.722;10.892;2022-09-13T14:58:59;5.77;;;3.30;;
5303;SDS011;2674;49.722;10.892;2022-09-13T15:01:31;4.13;;;2.60;;
5303;SDS011;2674;49.722;10.892;2022-09-13T15:03:59;5.60;;;3.63;;
5303;SDS011;2674;49.722;10.892;2022-09-13T15:06:29;6.67;;;3.73;;
5303;SDS011;2674;49.722;10.892;2022-09-13T15:12:17;7.33;;;3.50;;
5303;SDS011;2674;49.722;10.892;2022-09-13T15:14:32;3.63;;;3.30;;
5303;SDS011;2674;49.722;10.892;2022-09-13T15:17:05;5.80;;;3.93;;
5303;SDS011;2674;49.722;10.892;2022-09-13T15:22:19;3.70;;;3.40;;
5303;SDS011;2674;49.722;10.892;2022-09-13T15:24:49;4.80;;;3.70;;
5303;SDS011;2674;49.722;10.892;2022-09-13T15:27:20;5.10;;;3.13;;
5303;SDS011;2674;49.722;10.892;2022-09-13T15:30:18;3.80;;;3.33;;
5303;SDS011;2674;49.722;10.892;2022-09-13T15:33:04;3.10;;;2.90;;
5303;SDS011;2674;49.722;10.892;2022-09-13T15:35:35;4.00;;;3.27;;
5303;SDS011;2674;49.722;10.892;2022-09-13T15:40:42;3.90;;;3.03;;
5303;SDS011;2674;49.722;10.892;2022-09-13T15:43:10;4.10;;;3.63;;
5303;SDS011;2674;49.722;10.892;2022-09-13T15:45:35;3.13;;;2.93;;
5303;SDS011;2674;49.722;10.892;2022-09-13T15:48:01;3.97;;;3.03;;
5303;SDS011;2674;49.722;10.892;2022-09-13T15:50:29;4.93;;;3.73;;
5303;SDS011;2674;49.722;10.892;2022-09-13T15:52:57;5.40;;;2.97;;
5303;SDS011;2674;49.722;10.892;2022-09-13T15:55:25;4.53;;;3.20;;
5303;SDS011;2674;49.722;10.892;2022-09-13T15:57:55;3.63;;;3.33;;
5303;SDS011;2674;49.722;10.892;2022-09-13T16:00:22;2.67;;;2.47;;
5303;SDS011;2674;49.722;10.892;2022-09-13T16:02:49;5.20;;;3.00;;
5303;SDS011;2674;49.722;10.892;2022-09-13T16:05:16;3.83;;;3.53;;
5303;SDS011;2674;49.722;10.892;2022-09-13T16:07:43;3.40;;;2.80;;
5303;SDS011;2674;49.722;10.892;2022-09-13T16:10:13;3.53;;;3.00;;
5303;SDS011;2674;49.722;10.892;2022-09-13T16:12:44;7.87;;;3.40;;
5303;SDS011;2674;49.722;10.892;2022-09-13T16:15:10;3.97;;;2.97;;
5303;SDS011;2674;49.722;10.892;2022-09-13T16:17:37;5.07;;;3.10;;
5303;SDS011;2674;49.722;10.892;2022-09-13T16:20:03;3.83;;;3.33;;
5303;SDS011;2674;49.722;10.892;2022-09-13T16:22:32;3.10;;;2.90;;
5303;SDS011;2674;49.722;10.892;2022-09-13T16:24:58;11.00;;;3.30;;
5303;SDS011;2674;49.722;10.892;2022-09-13T16:27:24;5.30;;;3.57;;
5303;SDS011;2674;49.722;10.892;2022-09-13T16:29:50;3.90;;;3.27;;
5303;SDS011;2674;49.722;10.892;2022-09-13T16:32:17;4.90;;;3.25;;
5303;SDS011;2674;49.722;10.892;2022-09-13T16:34:43;4.40;;;2.90;;
5303;SDS011;2674;49.722;10.892;2022-09-13T16:37:13;2.70;;;2.50;;
5303;SDS011;2674;49.722;10.892;2022-09-13T16:39:41;4.47;;;3.10;;
5303;SDS011;2674;49.722;10.892;2022-09-13T16:42:10;3.20;;;2.90;;
5303;SDS011;2674;49.722;10.892;2022-09-13T16:44:37;3.37;;;3.00;;
5303;SDS011;2674;49.722;10.892;2022-09-13T16:47:03;2.67;;;2.47;;
5303;SDS011;2674;49.722;10.892;2022-09-13T16:49:29;4.80;;;2.93;;
5303;SDS011;2674;49.722;10.892;2022-09-13T16:51:54;7.73;;;2.80;;
5303;SDS011;2674;49.722;10.892;2022-09-13T16:54:24;3.63;;;3.10;;
5303;SDS011;2674;49.722;10.892;2022-09-13T16:56:51;3.03;;;2.83;;
5303;SDS011;2674;49.722;10.892;2022-09-13T16:59:17;3.37;;;3.10;;
5303;SDS011;2674;49.722;10.892;2022-09-13T17:01:43;3.33;;;2.70;;
5303;SDS011;2674;49.722;10.892;2022-09-13T17:04:10;7.30;;;3.00;;
5303;SDS011;2674;49.722;10.892;2022-09-13T17:06:36;3.80;;;3.50;;
5303;SDS011;2674;49.722;10.892;2022-09-13T17:09:03;3.13;;;2.93;;
5303;SDS011;2674;49.722;10.892;2022-09-13T17:11:33;2.73;;;2.63;;
5303;SDS011;2674;49.722;10.892;2022-09-13T17:14:01;12.77;;;3.87;;
5303;SDS011;2674;49.722;10.892;2022-09-13T17:18:56;4.10;;;3.70;;
5303;SDS011;2674;49.722;10.892;2022-09-13T17:21:24;4.30;;;3.90;;
5303;SDS011;2674;49.722;10.892;2022-09-13T17:23:51;3.80;;;3.50;;
5303;SDS011;2674;49.722;10.892;2022-09-13T17:26:17;6.90;;;3.80;;
5303;SDS011;2674;49.722;10.892;2022-09-13T17:28:43;6.10;;;4.30;;
5303;SDS011;2674;49.722;10.892;2022-09-13T17:31:09;6.07;;;3.90;;
5303;SDS011;2674;49.722;10.892;2022-09-13T17:33:34;4.20;;;3.37;;
5303;SDS011;2674;49.722;10.892;2022-09-13T17:36:01;3.70;;;3.20;;
5303;SDS011;2674;49.722;10.892;2022-09-13T17:38:31;3.60;;;3.30;;
5303;SDS011;2674;49.722;10.892;2022-09-13T17:40:58;4.63;;;3.53;;
5303;SDS011;2674;49.722;10.892;2022-09-13T17:43:29;3.53;;;3.23;;
5303;SDS011;2674;49.722;10.892;2022-09-13T17:45:55;12.07;;;3.67;;
5303;SDS011;2674;49.722;10.892;2022-09-13T17:48:22;7.33;;;5.90;;
5303;SDS011;2674;49.722;10.892;2022-09-13T17:50:48;5.57;;;5.07;;
5303;SDS011;2674;49.722;10.892;2022-09-13T17:53:14;4.80;;;4.30;;
5303;SDS011;2674;49.722;10.892;2022-09-13T17:55:46;8.30;;;4.70;;
5303;SDS011;2674;49.722;10.892;2022-09-13T17:58:15;7.03;;;5.27;;
5303;SDS011;2674;49.722;10.892;2022-09-13T18:00:41;5.53;;;5.03;;
5303;SDS011;2674;49.722;10.892;2022-09-13T18:03:07;4.90;;;4.33;;
5303;SDS011;2674;49.722;10.892;2022-09-13T18:05:34;6.03;;;4.83;;
5303;SDS011;2674;49.722;10.892;2022-09-13T18:08:00;6.60;;;5.07;;
5303;SDS011;2674;49.722;10.892;2022-09-13T18:10:26;9.63;;;5.73;;
5303;SDS011;2674;49.722;10.892;2022-09-13T18:12:52;8.10;;;5.43;;
5303;SDS011;2674;49.722;10.892;2022-09-13T18:15:18;8.50;;;4.50;;
5303;SDS011;2674;49.722;10.892;2022-09-13T18:17:44;4.77;;;4.37;;
5303;SDS011;2674;49.722;10.892;2022-09-13T18:20:09;6.40;;;5.53;;
5303;SDS011;2674;49.722;10.892;2022-09-13T18:22:35;6.40;;;4.23;;
5303;SDS011;2674;49.722;10.892;2022-09-13T18:25:01;5.07;;;4.57;;
5303;SDS011;2674;49.722;10.892;2022-09-13T18:27:27;4.50;;;4.10;;
5303;SDS011;2674;49.722;10.892;2022-09-13T18:29:53;7.03;;;5.20;;
5303;SDS011;2674;49.722;10.892;2022-09-13T18:32:19;5.43;;;4.53;;
5303;SDS011;2674;49.722;10.892;2022-09-13T18:34:44;6.17;;;5.63;;
5303;SDS011;2674;49.722;10.892;2022-09-13T18:37:10;6.40;;;5.77;;
5303;SDS011;2674;49.722;10.892;2022-09-13T18:39:36;7.23;;;5.27;;
5303;SDS011;2674;49.722;10.892;2022-09-13T18:42:03;5.90;;;4.90;;
5303;SDS011;2674;49.722;10.892;2022-09-13T18:44:29;8.20;;;5.23;;
5303;SDS011;2674;49.722;10.892;2022-09-13T18:46:55;5.50;;;4.87;;
5303;SDS011;2674;49.722;10.892;2022-09-13T18:49:22;8.30;;;5.77;;
5303;SDS011;2674;49.722;10.892;2022-09-13T18:51:48;10.40;;;5.20;;
5303;SDS011;2674;49.722;10.892;2022-09-13T18:54:17;9.00;;;5.13;;
5303;SDS011;2674;49.722;10.892;2022-09-13T18:56:43;7.30;;;5.40;;
5303;SDS011;2674;49.722;10.892;2022-09-13T18:59:11;7.63;;;5.27;;
5303;SDS011;2674;49.722;10.892;2022-09-13T19:01:41;7.10;;;5.93;;
5303;SDS011;2674;49.722;10.892;2022-09-13T19:04:09;6.13;;;5.30;;
5303;SDS011;2674;49.722;10.892;2022-09-13T19:06:38;5.20;;;4.80;;
5303;SDS011;2674;49.722;10.892;2022-09-13T19:09:06;6.43;;;5.87;;
5303;SDS011;2674;49.722;10.892;2022-09-13T19:11:34;6.50;;;5.10;;
5303;SDS011;2674;49.722;10.892;2022-09-13T19:14:02;5.83;;;5.23;;
5303;SDS011;2674;49.722;10.892;2022-09-13T19:16:28;5.73;;;5.20;;